sensor_id;sensor_type;location;lat;lon;timestamp;P1;durP1;ratioP1;P2;durP2;ratioP2
17151;SDS011;8691;50.828;4.700;2023-06-26T00:02:06;5.25;;;4.07;;
17151;SDS011;8691;50.828;4.700;2023-06-26T00:04:33;5.20;;;4.13;;
17151;SDS011;8691;50.828;4.700;2023-06-26T00:07:01;4.40;;;4.00;;
17151;SDS011;8691;50.828;4.700;2023-06-26T00:09:27;5.85;;;4.25;;
17151;SDS011;8691;50.828;4.700;2023-06-26T00:11:54;6.43;;;3.95;;
17151;SDS011;8691;50.828;4.700;2023-06-26T00:14:22;9.77;;;4.00;;
17151;SDS011;8691;50.828;4.700;2023-06-26T00:16:49;6.10;;;3.77;;
17151;SDS011;8691;50.828;4.700;2023-06-26T00:19:16;4.30;;;3.90;;
17151;SDS011;8691;50.828;4.700;2023-06-26T00:21:43;5.20;;;3.93;;
17151;SDS011;8691;50.828;4.700;2023-06-26T00:24:13;5.25;;;3.90;;
17151;SDS011;8691;50.828;4.700;2023-06-26T00:26:40;4.50;;;3.70;;
17151;SDS011;8691;50.828;4.700;2023-06-26T00:29:08;4.63;;;4.00;;
17151;SDS011;8691;50.828;4.700;2023-06-26T00:31:35;5.50;;;3.90;;
17151;SDS011;8691;50.828;4.700;2023-06-26T00:34:02;5.25;;;3.90;;
17151;SDS011;8691;50.828;4.700;2023-06-26T00:36:30;5.28;;;4.32;;
17151;SDS011;8691;50.828;4.700;2023-06-26T00:38:57;7.17;;;4.20;;
17151;SDS011;8691;50.828;4.700;2023-06-26T00:41:24;9.12;;;4.18;;
17151;SDS011;8691;50.828;4.700;2023-06-26T00:43:51;6.78;;;4.25;;
17151;SDS011;8691;50.828;4.700;2023-06-26T00:46:18;4.47;;;4.07;;
17151;SDS011;8691;50.828;4.700;2023-06-26T00:48:46;5.72;;;4.15;;
17151;SDS011;8691;50.828;4.700;2023-06-26T00:51:13;5.07;;;3.90;;
17151;SDS011;8691;50.828;4.700;2023-06-26T00:53:41;5.20;;;4.13;;
17151;SDS011;8691;50.828;4.700;2023-06-26T00:56:08;4.32;;;3.67;;
17151;SDS011;8691;50.828;4.700;2023-06-26T00:58:36;4.10;;;3.13;;
17151;SDS011;8691;50.828;4.700;2023-06-26T01:01:03;4.72;;;3.72;;
17151;SDS011;8691;50.828;4.700;2023-06-26T01:03:31;4.40;;;3.60;;
17151;SDS011;8691;50.828;4.700;2023-06-26T01:05:58;4.38;;;3.67;;
17151;SDS011;8691;50.828;4.700;2023-06-26T01:08:24;3.42;;;3.12;;
17151;SDS011;8691;50.828;4.700;2023-06-26T01:10:51;3.80;;;3.27;;
17151;SDS011;8691;50.828;4.700;2023-06-26T01:13:18;5.03;;;3.27;;
17151;SDS011;8691;50.828;4.700;2023-06-26T01:15:45;4.27;;;3.10;;
17151;SDS011;8691;50.828;4.700;2023-06-26T01:18:11;4.97;;;3.30;;
17151;SDS011;8691;50.828;4.700;2023-06-26T01:20:39;5.27;;;3.23;;
17151;SDS011;8691;50.828;4.700;2023-06-26T01:23:19;3.60;;;3.03;;
17151;SDS011;8691;50.828;4.700;2023-06-26T01:28:22;5.25;;;3.40;;
17151;SDS011;8691;50.828;4.700;2023-06-26T01:30:49;6.27;;;3.20;;
17151;SDS011;8691;50.828;4.700;2023-06-26T01:33:16;4.53;;;3.13;;
17151;SDS011;8691;50.828;4.700;2023-06-26T01:35:44;4.55;;;3.15;;
17151;SDS011;8691;50.828;4.700;2023-06-26T01:38:12;5.87;;;2.93;;
17151;SDS011;8691;50.828;4.700;2023-06-26T01:40:43;3.00;;;2.57;;
17151;SDS011;8691;50.828;4.700;2023-06-26T01:45:54;4.18;;;3.20;;
17151;SDS011;8691;50.828;4.700;2023-06-26T01:48:20;5.50;;;2.90;;
17151;SDS011;8691;50.828;4.700;2023-06-26T01:50:46;4.72;;;3.40;;
17151;SDS011;8691;50.828;4.700;2023-06-26T01:53:16;5.65;;;3.20;;
17151;SDS011;8691;50.828;4.700;2023-06-26T01:55:40;4.27;;;3.20;;
17151;SDS011;8691;50.828;4.700;2023-06-26T01:58:06;4.40;;;3.03;;
17151;SDS011;8691;50.828;4.700;2023-06-26T02:00:33;4.53;;;2.95;;
17151;SDS011;8691;50.828;4.700;2023-06-26T02:03:00;4.75;;;3.17;;
17151;SDS011;8691;50.828;4.700;2023-06-26T02:05:27;4.90;;;3.25;;
17151;SDS011;8691;50.828;4.700;2023-06-26T02:07:54;3.57;;;2.80;;
17151;SDS011;8691;50.828;4.700;2023-06-26T02:10:21;4.20;;;2.70;;
17151;SDS011;8691;50.828;4.700;2023-06-26T02:12:48;4.70;;;3.05;;
17151;SDS011;8691;50.828;4.700;2023-06-26T02:15:15;5.17;;;3.00;;
17151;SDS011;8691;50.828;4.700;2023-06-26T02:17:42;3.83;;;2.77;;
17151;SDS011;8691;50.828;4.700;2023-06-26T02:20:09;4.35;;;3.10;;
17151;SDS011;8691;50.828;4.700;2023-06-26T02:22:36;4.12;;;3.00;;
17151;SDS011;8691;50.828;4.700;2023-06-26T02:25:04;3.20;;;2.43;;
17151;SDS011;8691;50.828;4.700;2023-06-26T02:27:30;3.95;;;2.62;;
17151;SDS011;8691;50.828;4.700;2023-06-26T02:29:57;4.40;;;2.65;;
17151;SDS011;8691;50.828;4.700;2023-06-26T02:32:24;4.50;;;2.88;;
17151;SDS011;8691;50.828;4.700;2023-06-26T02:34:51;4.30;;;2.72;;
17151;SDS011;8691;50.828;4.700;2023-06-26T02:37:18;4.57;;;2.67;;
17151;SDS011;8691;50.828;4.700;2023-06-26T02:39:45;5.73;;;2.70;;
17151;SDS011;8691;50.828;4.700;2023-06-26T02:42:12;5.30;;;2.90;;
17151;SDS011;8691;50.828;4.700;2023-06-26T02:44:40;4.67;;;2.77;;
17151;SDS011;8691;50.828;4.700;2023-06-26T02:47:07;4.53;;;2.80;;
17151;SDS011;8691;50.828;4.700;2023-06-26T02:49:34;4.47;;;2.60;;
17151;SDS011;8691;50.828;4.700;2023-06-26T02:52:01;5.30;;;3.17;;
17151;SDS011;8691;50.828;4.700;2023-06-26T02:54:28;4.45;;;2.90;;
17151;SDS011;8691;50.828;4.700;2023-06-26T02:56:55;5.32;;;2.88;;
17151;SDS011;8691;50.828;4.700;2023-06-26T02:59:22;5.15;;;2.80;;
17151;SDS011;8691;50.828;4.700;2023-06-26T03:01:49;5.62;;;3.17;;
17151;SDS011;8691;50.828;4.700;2023-06-26T03:04:16;5.33;;;2.90;;
17151;SDS011;8691;50.828;4.700;2023-06-26T03:06:43;4.38;;;2.83;;
17151;SDS011;8691;50.828;4.700;2023-06-26T03:09:09;4.73;;;2.90;;
17151;SDS011;8691;50.828;4.700;2023-06-26T03:11:36;4.60;;;2.93;;
17151;SDS011;8691;50.828;4.700;2023-06-26T03:14:04;5.37;;;2.97;;
17151;SDS011;8691;50.828;4.700;2023-06-26T03:16:32;4.85;;;2.85;;
17151;SDS011;8691;50.828;4.700;2023-06-26T03:18:59;6.15;;;3.03;;
17151;SDS011;8691;50.828;4.700;2023-06-26T03:21:26;7.85;;;3.08;;
17151;SDS011;8691;50.828;4.700;2023-06-26T03:23:53;5.80;;;2.60;;
17151;SDS011;8691;50.828;4.700;2023-06-26T03:26:20;5.90;;;3.00;;
17151;SDS011;8691;50.828;4.700;2023-06-26T03:28:47;6.45;;;3.10;;
17151;SDS011;8691;50.828;4.700;2023-06-26T03:31:14;5.50;;;3.40;;
17151;SDS011;8691;50.828;4.700;2023-06-26T03:33:41;6.33;;;3.27;;
17151;SDS011;8691;50.828;4.700;2023-06-26T03:36:08;5.53;;;2.73;;
17151;SDS011;8691;50.828;4.700;2023-06-26T03:38:35;6.57;;;3.33;;
17151;SDS011;8691;50.828;4.700;2023-06-26T03:41:02;5.72;;;3.10;;
17151;SDS011;8691;50.828;4.700;2023-06-26T03:43:29;5.77;;;2.40;;
17151;SDS011;8691;50.828;4.700;2023-06-26T03:45:57;8.00;;;3.43;;
17151;SDS011;8691;50.828;4.700;2023-06-26T03:48:24;4.60;;;2.60;;
17151;SDS011;8691;50.828;4.700;2023-06-26T03:50:51;6.27;;;3.17;;
17151;SDS011;8691;50.828;4.700;2023-06-26T03:53:18;7.05;;;3.30;;
17151;SDS011;8691;50.828;4.700;2023-06-26T03:55:45;6.23;;;3.10;;
17151;SDS011;8691;50.828;4.700;2023-06-26T03:58:12;10.47;;;3.47;;
17151;SDS011;8691;50.828;4.700;2023-06-26T04:00:39;7.47;;;3.42;;
17151;SDS011;8691;50.828;4.700;2023-06-26T04:03:06;5.57;;;2.92;;
17151;SDS011;8691;50.828;4.700;2023-06-26T04:05:32;8.07;;;3.20;;
17151;SDS011;8691;50.828;4.700;2023-06-26T04:07:59;9.23;;;3.38;;
17151;SDS011;8691;50.828;4.700;2023-06-26T04:10:26;6.25;;;3.40;;
17151;SDS011;8691;50.828;4.700;2023-06-26T04:12:53;7.62;;;3.38;;
17151;SDS011;8691;50.828;4.700;2023-06-26T04:15:20;8.57;;;3.33;;
17151;SDS011;8691;50.828;4.700;2023-06-26T04:17:47;8.32;;;3.17;;
17151;SDS011;8691;50.828;4.700;2023-06-26T04:20:14;9.25;;;3.38;;
17151;SDS011;8691;50.828;4.700;2023-06-26T04:22:41;7.72;;;3.50;;
17151;SDS011;8691;50.828;4.700;2023-06-26T04:25:08;8.47;;;3.10;;
17151;SDS011;8691;50.828;4.700;2023-06-26T04:27:36;8.47;;;3.50;;
17151;SDS011;8691;50.828;4.700;2023-06-26T04:30:03;7.97;;;3.40;;
17151;SDS011;8691;50.828;4.700;2023-06-26T04:32:29;8.43;;;3.37;;
17151;SDS011;8691;50.828;4.700;2023-06-26T04:34:56;7.77;;;3.13;;
17151;SDS011;8691;50.828;4.700;2023-06-26T04:37:23;7.63;;;2.50;;
17151;SDS011;8691;50.828;4.700;2023-06-26T04:39:50;7.60;;;3.10;;
17151;SDS011;8691;50.828;4.700;2023-06-26T04:42:17;8.40;;;3.40;;
17151;SDS011;8691;50.828;4.700;2023-06-26T04:44:44;6.73;;;3.20;;
17151;SDS011;8691;50.828;4.700;2023-06-26T04:47:11;9.33;;;3.10;;
17151;SDS011;8691;50.828;4.700;2023-06-26T04:49:38;8.23;;;3.20;;
17151;SDS011;8691;50.828;4.700;2023-06-26T04:52:05;7.73;;;3.10;;
17151;SDS011;8691;50.828;4.700;2023-06-26T04:54:33;10.10;;;3.30;;
17151;SDS011;8691;50.828;4.700;2023-06-26T04:57:00;6.68;;;2.88;;
17151;SDS011;8691;50.828;4.700;2023-06-26T04:59:27;6.47;;;2.87;;
17151;SDS011;8691;50.828;4.700;2023-06-26T05:01:53;8.53;;;3.07;;
17151;SDS011;8691;50.828;4.700;2023-06-26T05:04:20;9.32;;;3.05;;
17151;SDS011;8691;50.828;4.700;2023-06-26T05:06:47;8.77;;;3.20;;
17151;SDS011;8691;50.828;4.700;2023-06-26T05:09:15;8.23;;;3.00;;
17151;SDS011;8691;50.828;4.700;2023-06-26T05:11:41;7.03;;;3.07;;
17151;SDS011;8691;50.828;4.700;2023-06-26T05:14:08;7.90;;;2.90;;
17151;SDS011;8691;50.828;4.700;2023-06-26T05:16:35;7.20;;;2.70;;
17151;SDS011;8691;50.828;4.700;2023-06-26T05:19:02;9.07;;;2.92;;
17151;SDS011;8691;50.828;4.700;2023-06-26T05:21:29;7.62;;;2.97;;
17151;SDS011;8691;50.828;4.700;2023-06-26T05:23:56;7.83;;;2.60;;
17151;SDS011;8691;50.828;4.700;2023-06-26T05:26:24;8.17;;;2.37;;
17151;SDS011;8691;50.828;4.700;2023-06-26T05:28:50;7.82;;;2.72;;
17151;SDS011;8691;50.828;4.700;2023-06-26T05:31:17;7.90;;;2.80;;
17151;SDS011;8691;50.828;4.700;2023-06-26T05:33:44;8.93;;;2.58;;
17151;SDS011;8691;50.828;4.700;2023-06-26T05:36:11;7.00;;;2.30;;
17151;SDS011;8691;50.828;4.700;2023-06-26T05:38:38;9.82;;;2.05;;
17151;SDS011;8691;50.828;4.700;2023-06-26T05:41:06;7.27;;;2.50;;
17151;SDS011;8691;50.828;4.700;2023-06-26T05:43:33;7.22;;;2.40;;
17151;SDS011;8691;50.828;4.700;2023-06-26T05:46:00;8.20;;;2.40;;
17151;SDS011;8691;50.828;4.700;2023-06-26T05:48:27;7.33;;;1.90;;
17151;SDS011;8691;50.828;4.700;2023-06-26T05:50:54;5.87;;;2.07;;
17151;SDS011;8691;50.828;4.700;2023-06-26T05:53:21;5.37;;;1.90;;
17151;SDS011;8691;50.828;4.700;2023-06-26T05:55:48;7.78;;;2.22;;
17151;SDS011;8691;50.828;4.700;2023-06-26T05:58:15;7.15;;;2.20;;
17151;SDS011;8691;50.828;4.700;2023-06-26T06:00:42;5.50;;;2.05;;
17151;SDS011;8691;50.828;4.700;2023-06-26T06:03:09;4.72;;;1.80;;
17151;SDS011;8691;50.828;4.700;2023-06-26T06:05:36;6.43;;;2.20;;
17151;SDS011;8691;50.828;4.700;2023-06-26T06:08:03;6.60;;;1.98;;
17151;SDS011;8691;50.828;4.700;2023-06-26T06:10:30;7.27;;;2.20;;
17151;SDS011;8691;50.828;4.700;2023-06-26T06:12:57;6.43;;;2.03;;
17151;SDS011;8691;50.828;4.700;2023-06-26T06:15:23;6.83;;;2.00;;
17151;SDS011;8691;50.828;4.700;2023-06-26T06:17:51;8.05;;;1.90;;
17151;SDS011;8691;50.828;4.700;2023-06-26T06:20:18;9.90;;;2.20;;
17151;SDS011;8691;50.828;4.700;2023-06-26T06:22:45;5.70;;;1.90;;
17151;SDS011;8691;50.828;4.700;2023-06-26T06:25:12;6.50;;;1.67;;
17151;SDS011;8691;50.828;4.700;2023-06-26T06:27:39;6.20;;;2.00;;
17151;SDS011;8691;50.828;4.700;2023-06-26T06:30:07;5.40;;;1.95;;
17151;SDS011;8691;50.828;4.700;2023-06-26T06:32:34;5.57;;;1.70;;
17151;SDS011;8691;50.828;4.700;2023-06-26T06:35:01;6.62;;;1.88;;
17151;SDS011;8691;50.828;4.700;2023-06-26T06:37:28;3.77;;;1.37;;
17151;SDS011;8691;50.828;4.700;2023-06-26T06:39:54;5.12;;;1.83;;
17151;SDS011;8691;50.828;4.700;2023-06-26T06:42:21;4.73;;;1.80;;
17151;SDS011;8691;50.828;4.700;2023-06-26T06:44:48;5.38;;;1.62;;
17151;SDS011;8691;50.828;4.700;2023-06-26T06:47:15;3.97;;;1.63;;
17151;SDS011;8691;50.828;4.700;2023-06-26T06:49:42;7.43;;;1.60;;
17151;SDS011;8691;50.828;4.700;2023-06-26T06:52:09;5.80;;;1.80;;
17151;SDS011;8691;50.828;4.700;2023-06-26T06:54:58;4.68;;;1.60;;
17151;SDS011;8691;50.828;4.700;2023-06-26T06:57:17;4.68;;;1.48;;
17151;SDS011;8691;50.828;4.700;2023-06-26T06:59:44;8.00;;;1.65;;
17151;SDS011;8691;50.828;4.700;2023-06-26T07:02:12;5.40;;;1.60;;
17151;SDS011;8691;50.828;4.700;2023-06-26T07:04:40;4.05;;;1.12;;
17151;SDS011;8691;50.828;4.700;2023-06-26T07:07:07;6.90;;;1.83;;
17151;SDS011;8691;50.828;4.700;2023-06-26T07:09:34;9.57;;;2.00;;
17151;SDS011;8691;50.828;4.700;2023-06-26T07:12:00;5.25;;;1.65;;
17151;SDS011;8691;50.828;4.700;2023-06-26T07:14:27;4.07;;;1.57;;
17151;SDS011;8691;50.828;4.700;2023-06-26T07:16:54;3.08;;;1.23;;
17151;SDS011;8691;50.828;4.700;2023-06-26T07:19:22;3.97;;;1.60;;
17151;SDS011;8691;50.828;4.700;2023-06-26T07:21:50;5.03;;;1.42;;
17151;SDS011;8691;50.828;4.700;2023-06-26T07:24:18;4.25;;;1.30;;
17151;SDS011;8691;50.828;4.700;2023-06-26T07:26:45;5.30;;;1.40;;
17151;SDS011;8691;50.828;4.700;2023-06-26T07:29:12;3.87;;;1.50;;
17151;SDS011;8691;50.828;4.700;2023-06-26T07:31:39;4.38;;;1.40;;
17151;SDS011;8691;50.828;4.700;2023-06-26T07:34:06;5.40;;;1.47;;
17151;SDS011;8691;50.828;4.700;2023-06-26T07:36:33;4.28;;;1.40;;
17151;SDS011;8691;50.828;4.700;2023-06-26T07:39:00;4.20;;;1.40;;
17151;SDS011;8691;50.828;4.700;2023-06-26T07:41:27;4.33;;;1.50;;
17151;SDS011;8691;50.828;4.700;2023-06-26T07:43:54;3.12;;;1.45;;
17151;SDS011;8691;50.828;4.700;2023-06-26T07:46:22;5.73;;;1.37;;
17151;SDS011;8691;50.828;4.700;2023-06-26T07:48:49;5.10;;;1.33;;
17151;SDS011;8691;50.828;4.700;2023-06-26T07:51:15;4.30;;;1.30;;
17151;SDS011;8691;50.828;4.700;2023-06-26T07:53:43;3.30;;;1.20;;
17151;SDS011;8691;50.828;4.700;2023-06-26T07:56:10;3.65;;;1.00;;
17151;SDS011;8691;50.828;4.700;2023-06-26T07:58:37;2.53;;;1.10;;
17151;SDS011;8691;50.828;4.700;2023-06-26T08:01:04;3.30;;;1.27;;
17151;SDS011;8691;50.828;4.700;2023-06-26T08:03:30;4.17;;;1.20;;
17151;SDS011;8691;50.828;4.700;2023-06-26T08:05:58;3.37;;;1.27;;
17151;SDS011;8691;50.828;4.700;2023-06-26T08:08:25;3.45;;;1.25;;
17151;SDS011;8691;50.828;4.700;2023-06-26T08:10:52;2.57;;;1.10;;
17151;SDS011;8691;50.828;4.700;2023-06-26T08:13:19;5.00;;;1.40;;
17151;SDS011;8691;50.828;4.700;2023-06-26T08:15:45;4.57;;;1.33;;
17151;SDS011;8691;50.828;4.700;2023-06-26T08:18:12;4.90;;;1.17;;
17151;SDS011;8691;50.828;4.700;2023-06-26T08:20:39;4.35;;;1.10;;
17151;SDS011;8691;50.828;4.700;2023-06-26T08:23:06;2.50;;;1.00;;
17151;SDS011;8691;50.828;4.700;2023-06-26T08:25:33;2.45;;;1.05;;
17151;SDS011;8691;50.828;4.700;2023-06-26T08:28:00;3.63;;;1.30;;
17151;SDS011;8691;50.828;4.700;2023-06-26T08:30:27;2.88;;;1.10;;
17151;SDS011;8691;50.828;4.700;2023-06-26T08:32:57;2.70;;;1.13;;
17151;SDS011;8691;50.828;4.700;2023-06-26T08:35:24;2.83;;;1.10;;
17151;SDS011;8691;50.828;4.700;2023-06-26T08:37:51;3.22;;;1.10;;
17151;SDS011;8691;50.828;4.700;2023-06-26T08:40:18;3.33;;;1.00;;
17151;SDS011;8691;50.828;4.700;2023-06-26T08:42:44;3.87;;;1.20;;
17151;SDS011;8691;50.828;4.700;2023-06-26T08:45:11;2.67;;;1.00;;
17151;SDS011;8691;50.828;4.700;2023-06-26T08:47:39;2.67;;;1.07;;
17151;SDS011;8691;50.828;4.700;2023-06-26T08:50:10;2.35;;;0.90;;
17151;SDS011;8691;50.828;4.700;2023-06-26T08:55:17;3.77;;;1.20;;
17151;SDS011;8691;50.828;4.700;2023-06-26T08:57:44;3.97;;;1.20;;
17151;SDS011;8691;50.828;4.700;2023-06-26T09:00:10;4.87;;;1.00;;
17151;SDS011;8691;50.828;4.700;2023-06-26T09:02:37;4.28;;;1.20;;
17151;SDS011;8691;50.828;4.700;2023-06-26T09:05:05;2.73;;;0.80;;
17151;SDS011;8691;50.828;4.700;2023-06-26T09:07:32;2.20;;;1.00;;
17151;SDS011;8691;50.828;4.700;2023-06-26T09:09:59;5.95;;;1.10;;
17151;SDS011;8691;50.828;4.700;2023-06-26T09:12:27;3.47;;;1.00;;
17151;SDS011;8691;50.828;4.700;2023-06-26T09:14:54;3.50;;;0.80;;
17151;SDS011;8691;50.828;4.700;2023-06-26T09:17:23;4.03;;;1.00;;
17151;SDS011;8691;50.828;4.700;2023-06-26T09:19:48;2.43;;;0.90;;
17151;SDS011;8691;50.828;4.700;2023-06-26T09:22:14;2.50;;;0.93;;
17151;SDS011;8691;50.828;4.700;2023-06-26T09:24:41;3.20;;;0.90;;
17151;SDS011;8691;50.828;4.700;2023-06-26T09:27:08;2.67;;;1.00;;
17151;SDS011;8691;50.828;4.700;2023-06-26T09:29:35;2.22;;;1.05;;
17151;SDS011;8691;50.828;4.700;2023-06-26T09:32:02;4.27;;;1.10;;
17151;SDS011;8691;50.828;4.700;2023-06-26T09:34:32;3.72;;;0.95;;
17151;SDS011;8691;50.828;4.700;2023-06-26T09:36:59;2.80;;;0.90;;
17151;SDS011;8691;50.828;4.700;2023-06-26T09:39:26;3.78;;;0.90;;
17151;SDS011;8691;50.828;4.700;2023-06-26T09:41:53;2.67;;;0.90;;
17151;SDS011;8691;50.828;4.700;2023-06-26T09:44:19;18.83;;;2.73;;
17151;SDS011;8691;50.828;4.700;2023-06-26T09:46:47;3.37;;;0.90;;
17151;SDS011;8691;50.828;4.700;2023-06-26T09:49:14;4.12;;;1.10;;
17151;SDS011;8691;50.828;4.700;2023-06-26T09:51:41;3.10;;;1.10;;
17151;SDS011;8691;50.828;4.700;2023-06-26T09:54:09;3.50;;;0.90;;
17151;SDS011;8691;50.828;4.700;2023-06-26T09:56:36;3.53;;;0.90;;
17151;SDS011;8691;50.828;4.700;2023-06-26T09:59:03;3.07;;;0.83;;
17151;SDS011;8691;50.828;4.700;2023-06-26T10:01:30;1.70;;;0.80;;
17151;SDS011;8691;50.828;4.700;2023-06-26T10:03:57;3.47;;;0.87;;
17151;SDS011;8691;50.828;4.700;2023-06-26T10:06:28;2.07;;;0.80;;
17151;SDS011;8691;50.828;4.700;2023-06-26T10:09:02;3.70;;;0.77;;
17151;SDS011;8691;50.828;4.700;2023-06-26T10:11:32;2.00;;;0.77;;
17151;SDS011;8691;50.828;4.700;2023-06-26T10:14:00;2.53;;;1.10;;
17151;SDS011;8691;50.828;4.700;2023-06-26T10:16:27;2.90;;;0.90;;
17151;SDS011;8691;50.828;4.700;2023-06-26T10:18:56;4.23;;;1.20;;
17151;SDS011;8691;50.828;4.700;2023-06-26T10:21:21;2.80;;;0.98;;
17151;SDS011;8691;50.828;4.700;2023-06-26T10:23:47;3.50;;;1.00;;
17151;SDS011;8691;50.828;4.700;2023-06-26T10:26:14;2.35;;;1.00;;
17151;SDS011;8691;50.828;4.700;2023-06-26T10:28:41;3.37;;;1.10;;
17151;SDS011;8691;50.828;4.700;2023-06-26T10:31:08;3.25;;;1.02;;
17151;SDS011;8691;50.828;4.700;2023-06-26T10:33:35;3.53;;;1.10;;
17151;SDS011;8691;50.828;4.700;2023-06-26T10:36:18;2.60;;;1.23;;
17151;SDS011;8691;50.828;4.700;2023-06-26T10:41:19;2.03;;;0.90;;
17151;SDS011;8691;50.828;4.700;2023-06-26T10:43:43;3.57;;;1.20;;
17151;SDS011;8691;50.828;4.700;2023-06-26T10:46:10;3.63;;;1.20;;
17151;SDS011;8691;50.828;4.700;2023-06-26T10:51:26;2.88;;;1.12;;
17151;SDS011;8691;50.828;4.700;2023-06-26T10:53:55;2.43;;;1.10;;
17151;SDS011;8691;50.828;4.700;2023-06-26T10:56:40;3.87;;;1.20;;
17151;SDS011;8691;50.828;4.700;2023-06-26T10:58:49;2.75;;;1.12;;
17151;SDS011;8691;50.828;4.700;2023-06-26T11:01:22;3.13;;;1.00;;
17151;SDS011;8691;50.828;4.700;2023-06-26T11:03:48;2.70;;;1.03;;
17151;SDS011;8691;50.828;4.700;2023-06-26T11:06:29;3.20;;;1.20;;
17151;SDS011;8691;50.828;4.700;2023-06-26T11:14:20;2.70;;;1.10;;
17151;SDS011;8691;50.828;4.700;2023-06-26T11:16:47;3.03;;;1.00;;
17151;SDS011;8691;50.828;4.700;2023-06-26T11:19:16;3.10;;;1.03;;
17151;SDS011;8691;50.828;4.700;2023-06-26T11:21:41;2.57;;;1.10;;
17151;SDS011;8691;50.828;4.700;2023-06-26T11:24:08;2.40;;;0.98;;
17151;SDS011;8691;50.828;4.700;2023-06-26T11:26:41;4.10;;;1.00;;
17151;SDS011;8691;50.828;4.700;2023-06-26T11:29:07;3.12;;;1.00;;
17151;SDS011;8691;50.828;4.700;2023-06-26T11:31:35;2.97;;;1.10;;
17151;SDS011;8691;50.828;4.700;2023-06-26T11:34:05;2.92;;;1.05;;
17151;SDS011;8691;50.828;4.700;2023-06-26T11:36:31;2.43;;;1.20;;
17151;SDS011;8691;50.828;4.700;2023-06-26T11:39:02;5.10;;;1.10;;
17151;SDS011;8691;50.828;4.700;2023-06-26T11:41:29;3.30;;;1.10;;
17151;SDS011;8691;50.828;4.700;2023-06-26T11:43:54;3.03;;;1.20;;
17151;SDS011;8691;50.828;4.700;2023-06-26T11:46:21;3.80;;;1.27;;
17151;SDS011;8691;50.828;4.700;2023-06-26T11:48:48;2.83;;;1.20;;
17151;SDS011;8691;50.828;4.700;2023-06-26T11:51:15;5.07;;;1.27;;
17151;SDS011;8691;50.828;4.700;2023-06-26T11:53:42;4.22;;;1.35;;
17151;SDS011;8691;50.828;4.700;2023-06-26T11:56:12;4.10;;;1.30;;
17151;SDS011;8691;50.828;4.700;2023-06-26T11:58:57;4.13;;;1.30;;
17151;SDS011;8691;50.828;4.700;2023-06-26T12:01:23;3.40;;;1.37;;
17151;SDS011;8691;50.828;4.700;2023-06-26T12:03:50;3.20;;;1.30;;
17151;SDS011;8691;50.828;4.700;2023-06-26T12:06:17;4.40;;;1.50;;
17151;SDS011;8691;50.828;4.700;2023-06-26T12:08:44;3.33;;;1.30;;
17151;SDS011;8691;50.828;4.700;2023-06-26T12:11:12;2.58;;;1.20;;
17151;SDS011;8691;50.828;4.700;2023-06-26T12:13:38;3.47;;;1.33;;
17151;SDS011;8691;50.828;4.700;2023-06-26T12:16:05;3.43;;;1.20;;
17151;SDS011;8691;50.828;4.700;2023-06-26T12:18:35;2.28;;;1.40;;
17151;SDS011;8691;50.828;4.700;2023-06-26T12:21:01;2.83;;;1.23;;
17151;SDS011;8691;50.828;4.700;2023-06-26T12:23:38;2.72;;;1.45;;
17151;SDS011;8691;50.828;4.700;2023-06-26T12:26:19;2.67;;;1.30;;
17151;SDS011;8691;50.828;4.700;2023-06-26T12:28:44;3.80;;;1.30;;
17151;SDS011;8691;50.828;4.700;2023-06-26T12:31:14;2.73;;;1.27;;
17151;SDS011;8691;50.828;4.700;2023-06-26T12:33:43;3.20;;;1.17;;
17151;SDS011;8691;50.828;4.700;2023-06-26T12:36:10;2.60;;;1.47;;
17151;SDS011;8691;50.828;4.700;2023-06-26T12:38:37;2.47;;;1.20;;
17151;SDS011;8691;50.828;4.700;2023-06-26T12:41:04;3.60;;;1.30;;
17151;SDS011;8691;50.828;4.700;2023-06-26T12:43:31;2.70;;;1.05;;
17151;SDS011;8691;50.828;4.700;2023-06-26T12:45:59;2.97;;;1.20;;
17151;SDS011;8691;50.828;4.700;2023-06-26T12:48:38;2.60;;;1.00;;
17151;SDS011;8691;50.828;4.700;2023-06-26T12:51:13;7.53;;;1.30;;
17151;SDS011;8691;50.828;4.700;2023-06-26T12:53:40;3.90;;;1.33;;
17151;SDS011;8691;50.828;4.700;2023-06-26T12:56:07;3.38;;;1.30;;
17151;SDS011;8691;50.828;4.700;2023-06-26T12:58:34;3.38;;;1.20;;
17151;SDS011;8691;50.828;4.700;2023-06-26T13:01:04;4.40;;;1.30;;
17151;SDS011;8691;50.828;4.700;2023-06-26T13:03:27;2.60;;;1.30;;
17151;SDS011;8691;50.828;4.700;2023-06-26T13:05:54;3.25;;;1.20;;
17151;SDS011;8691;50.828;4.700;2023-06-26T13:08:21;2.77;;;1.23;;
17151;SDS011;8691;50.828;4.700;2023-06-26T13:10:48;6.15;;;1.40;;
17151;SDS011;8691;50.828;4.700;2023-06-26T13:13:15;2.53;;;1.10;;
17151;SDS011;8691;50.828;4.700;2023-06-26T13:15:42;4.53;;;1.02;;
17151;SDS011;8691;50.828;4.700;2023-06-26T13:18:09;2.87;;;1.10;;
17151;SDS011;8691;50.828;4.700;2023-06-26T13:20:36;3.10;;;1.20;;
17151;SDS011;8691;50.828;4.700;2023-06-26T13:23:03;3.75;;;1.30;;
17151;SDS011;8691;50.828;4.700;2023-06-26T13:25:29;3.77;;;1.10;;
17151;SDS011;8691;50.828;4.700;2023-06-26T13:27:57;5.22;;;1.17;;
17151;SDS011;8691;50.828;4.700;2023-06-26T13:30:24;3.67;;;1.20;;
17151;SDS011;8691;50.828;4.700;2023-06-26T13:32:51;3.67;;;1.20;;
17151;SDS011;8691;50.828;4.700;2023-06-26T13:35:17;4.17;;;1.20;;
17151;SDS011;8691;50.828;4.700;2023-06-26T13:37:44;3.33;;;1.15;;
17151;SDS011;8691;50.828;4.700;2023-06-26T13:40:11;5.30;;;1.20;;
17151;SDS011;8691;50.828;4.700;2023-06-26T13:42:38;1.75;;;1.00;;
17151;SDS011;8691;50.828;4.700;2023-06-26T13:45:05;2.47;;;1.10;;
17151;SDS011;8691;50.828;4.700;2023-06-26T13:47:32;2.03;;;0.90;;
17151;SDS011;8691;50.828;4.700;2023-06-26T13:49:59;3.85;;;1.20;;
17151;SDS011;8691;50.828;4.700;2023-06-26T13:52:25;2.25;;;1.10;;
17151;SDS011;8691;50.828;4.700;2023-06-26T13:54:52;3.17;;;1.40;;
17151;SDS011;8691;50.828;4.700;2023-06-26T13:57:19;3.35;;;1.23;;
17151;SDS011;8691;50.828;4.700;2023-06-26T13:59:46;4.17;;;1.70;;
17151;SDS011;8691;50.828;4.700;2023-06-26T14:02:13;3.08;;;1.10;;
17151;SDS011;8691;50.828;4.700;2023-06-26T14:04:40;3.47;;;1.17;;
17151;SDS011;8691;50.828;4.700;2023-06-26T14:07:07;4.00;;;1.30;;
17151;SDS011;8691;50.828;4.700;2023-06-26T14:09:34;3.33;;;1.12;;
17151;SDS011;8691;50.828;4.700;2023-06-26T14:12:00;2.93;;;1.20;;
17151;SDS011;8691;50.828;4.700;2023-06-26T14:14:27;3.10;;;1.00;;
17151;SDS011;8691;50.828;4.700;2023-06-26T14:16:54;3.83;;;1.33;;
17151;SDS011;8691;50.828;4.700;2023-06-26T14:19:21;5.07;;;1.30;;
17151;SDS011;8691;50.828;4.700;2023-06-26T14:21:48;3.40;;;1.13;;
17151;SDS011;8691;50.828;4.700;2023-06-26T14:24:15;3.20;;;1.10;;
17151;SDS011;8691;50.828;4.700;2023-06-26T14:26:42;2.57;;;1.00;;
17151;SDS011;8691;50.828;4.700;2023-06-26T14:29:08;4.10;;;1.00;;
17151;SDS011;8691;50.828;4.700;2023-06-26T14:31:36;5.20;;;1.40;;
17151;SDS011;8691;50.828;4.700;2023-06-26T14:34:03;4.32;;;1.30;;
17151;SDS011;8691;50.828;4.700;2023-06-26T14:36:30;2.92;;;0.90;;
17151;SDS011;8691;50.828;4.700;2023-06-26T14:38:57;3.97;;;1.20;;
17151;SDS011;8691;50.828;4.700;2023-06-26T14:41:24;2.75;;;1.10;;
17151;SDS011;8691;50.828;4.700;2023-06-26T14:43:51;4.50;;;1.20;;
17151;SDS011;8691;50.828;4.700;2023-06-26T14:46:18;3.75;;;1.23;;
17151;SDS011;8691;50.828;4.700;2023-06-26T14:48:44;2.60;;;1.20;;
17151;SDS011;8691;50.828;4.700;2023-06-26T14:51:11;3.20;;;1.43;;
17151;SDS011;8691;50.828;4.700;2023-06-26T14:53:39;8.60;;;3.80;;
17151;SDS011;8691;50.828;4.700;2023-06-26T14:56:06;3.57;;;1.40;;
17151;SDS011;8691;50.828;4.700;2023-06-26T14:58:33;2.50;;;1.30;;
17151;SDS011;8691;50.828;4.700;2023-06-26T15:01:00;3.55;;;1.20;;
17151;SDS011;8691;50.828;4.700;2023-06-26T15:03:27;3.47;;;1.30;;
17151;SDS011;8691;50.828;4.700;2023-06-26T15:05:54;2.10;;;1.00;;
17151;SDS011;8691;50.828;4.700;2023-06-26T15:08:21;2.63;;;1.40;;
17151;SDS011;8691;50.828;4.700;2023-06-26T15:10:49;5.00;;;1.20;;
17151;SDS011;8691;50.828;4.700;2023-06-26T15:13:15;3.67;;;1.20;;
17151;SDS011;8691;50.828;4.700;2023-06-26T15:15:42;2.72;;;1.20;;
17151;SDS011;8691;50.828;4.700;2023-06-26T15:18:09;4.00;;;1.20;;
17151;SDS011;8691;50.828;4.700;2023-06-26T15:20:36;4.93;;;1.17;;